Sun Maiden — CZ4548 — position and weather

sailwx.info

Track history (hours):
 
Tides and Currents Weather Stations Pressure Air Temp Water Temp Dewpoint Dewpoint Depression Visibility Wind Speed Wind Dir Waves Ship Positions

Sun Maiden

Last reported at 2017-Oct-17 21:52 UTC. Time now 2017-Oct-18 02:22 UTC.
Position N 49°14' W 124°49'.

Length 30 m; draft 2.8 m.

Type: Fishing. MMSI: 316003459.

Date/timePositionNaut miles runAvg speedWind from/ knotsBaromVisibWave heightAir tempDewpointWater temp
2017-Oct-17 21:52N 49°14' W 124°49'0 0.0
2017-Oct-17 21:30N 49°14' W 124°49'0 0.0
2017-Oct-17 21:00N 49°14' W 124°49'0 0.0
2017-Oct-17 20:30N 49°14' W 124°49'0 0.0
2017-Oct-17 20:00N 49°14' W 124°49'0 0.0
2017-Oct-17 19:30N 49°14' W 124°49'0 0.0
2017-Oct-17 19:00N 49°14' W 124°49'0 0.0
2017-Oct-17 18:30N 49°14' W 124°49'0 0.0
2017-Oct-17 18:00N 49°14' W 124°49'0 0.0
2017-Oct-17 17:30N 49°14' W 124°49'0 0.0
2017-Oct-17 17:00N 49°14' W 124°49'0 0.0
2017-Oct-17 16:30N 49°14' W 124°49'0 0.0
2017-Oct-17 16:00N 49°14' W 124°49'0 0.0
2017-Oct-17 15:30N 49°14' W 124°49'0 0.0
2017-Oct-17 15:00N 49°14' W 124°49'0 0.0
2017-Oct-17 14:30N 49°14' W 124°49'0 0.0
2017-Oct-17 14:00N 49°14' W 124°49'0 0.0
2017-Oct-17 13:30N 49°14' W 124°49'0 0.0
2017-Oct-17 13:00N 49°14' W 124°49'0 0.0
2017-Oct-17 12:30N 49°14' W 124°49'0 0.0
2017-Oct-17 12:00N 49°14' W 124°49'0 0.0
2017-Oct-17 11:30N 49°14' W 124°49'0 0.0
2017-Oct-17 11:00N 49°14' W 124°49'0 0.0
2017-Oct-17 10:30N 49°14' W 124°49'0 0.0
2017-Oct-17 10:00N 49°14' W 124°49'0 0.0
2017-Oct-17 09:30N 49°14' W 124°49'0 0.0
2017-Oct-17 09:00N 49°14' W 124°49'0 0.0
2017-Oct-17 08:30N 49°14' W 124°49'0 0.0
2017-Oct-17 08:00N 49°14' W 124°49'0 0.0
2017-Oct-17 07:30N 49°14' W 124°49'0 0.0
2017-Oct-17 07:00N 49°14' W 124°49'0 0.0
2017-Oct-17 06:30N 49°14' W 124°49'0 0.0
2017-Oct-17 06:00N 49°14' W 124°49'0 0.0
2017-Oct-17 05:30N 49°14' W 124°49'0 0.0
2017-Oct-17 04:59N 49°14' W 124°49'0 0.0
2017-Oct-17 04:30N 49°14' W 124°49'0 0.0
2017-Oct-17 04:00N 49°14' W 124°49'0 0.0
2017-Oct-17 03:30N 49°14' W 124°49'0 0.0
2017-Oct-17 03:00N 49°14' W 124°49'0 0.0
2017-Oct-17 02:30N 49°14' W 124°49'0 0.0
2017-Oct-17 02:00N 49°14' W 124°49'0 0.0
2017-Oct-17 01:30N 49°14' W 124°49'0 0.0
2017-Oct-17 01:00N 49°14' W 124°49'0 0.0
2017-Oct-17 00:30N 49°14' W 124°49'0 0.0
2017-Oct-17 00:00N 49°14' W 124°49'0 0.0
2017-Oct-16 23:30N 49°14' W 124°49'0 0.0
2017-Oct-16 23:00N 49°14' W 124°49'0 0.0
2017-Oct-16 22:30N 49°14' W 124°49'0 0.0
2017-Oct-16 22:00N 49°14' W 124°49'0 0.0
2017-Oct-16 21:30N 49°14' W 124°49'0 0.0
2017-Oct-16 21:00N 49°14' W 124°49'0 0.0
2017-Oct-16 20:30N 49°14' W 124°49'0 0.0
2017-Oct-16 20:00N 49°14' W 124°49'0 0.0
2017-Oct-16 19:30N 49°14' W 124°49'0 0.0
2017-Oct-16 19:00N 49°14' W 124°49'0 0.1
2017-Oct-16 18:30N 49°14' W 124°49'4 7.7
2017-Oct-16 18:00N 49°10' W 124°49'20 7.5
2017-Oct-16 15:17N 48°56' W 125°11'2 8.6
2017-Oct-16 15:00N 48°57' W 125°15'4 8.2
2017-Oct-16 14:30N 48°56' W 125°21'7 7.1
2017-Oct-16 13:30N 48°56' W 125°32'0 0.3
2017-Oct-16 13:00N 48°56' W 125°32'0 0.0
2017-Oct-16 12:30N 48°56' W 125°32'0 0.0
2017-Oct-16 12:00N 48°56' W 125°32'0 0.0
2017-Oct-16 11:30N 48°56' W 125°32'0 0.0
2017-Oct-16 11:00N 48°56' W 125°32'0 0.0
2017-Oct-16 10:30N 48°56' W 125°32'0 0.0
2017-Oct-16 10:00N 48°56' W 125°32'0 0.1
2017-Oct-16 09:30N 48°56' W 125°32'0 0.1
2017-Oct-16 09:00N 48°56' W 125°32'0 0.1
2017-Oct-16 08:30N 48°56' W 125°32'0 0.1
2017-Oct-16 08:00N 48°56' W 125°32'0 0.1
2017-Oct-16 07:30N 48°56' W 125°32'0 0.0
2017-Oct-16 07:00N 48°56' W 125°32'0 0.0
2017-Oct-16 06:30N 48°56' W 125°32'0 0.1
2017-Oct-16 06:00N 48°56' W 125°32'0 0.1
2017-Oct-16 05:30N 48°56' W 125°32'0 0.0
2017-Oct-16 05:00N 48°56' W 125°32'0 0.0
2017-Oct-16 04:30N 48°56' W 125°32'0 0.1
2017-Oct-16 04:00N 48°56' W 125°32'0 0.0
2017-Oct-16 03:30N 48°56' W 125°32'0 0.1
2017-Oct-16 03:00N 48°56' W 125°32'0 0.1
2017-Oct-16 02:30N 48°56' W 125°32'0 0.0
2017-Oct-16 02:00N 48°56' W 125°32'0 0.0
2017-Oct-16 01:30N 48°56' W 125°32'0 0.0
2017-Oct-16 01:00N 48°56' W 125°32'0 0.0
2017-Oct-16 00:30N 48°56' W 125°32'0 0.0
2017-Oct-16 00:00N 48°56' W 125°32'0 0.1
2017-Oct-15 23:30N 48°56' W 125°32'3 6.4
2017-Oct-15 23:01N 48°53' W 125°33'4 8.4
2017-Oct-15 22:30N 48°49' W 125°35'1 2.1
2017-Oct-15 22:00N 48°48' W 125°35'4 7.2
2017-Oct-15 21:30N 48°45' W 125°35'4 7.7
2017-Oct-15 20:59N 48°41' W 125°36'7 0.2
2017-Oct-14 12:27N 48°43' W 125°25'3 7.6
2017-Oct-14 12:00N 48°46' W 125°27'4 7.9
2017-Oct-14 11:30N 48°50' W 125°30'4 8.0
2017-Oct-14 11:00N 48°53' W 125°32'3 6.6
2017-Oct-14 10:30N 48°56' W 125°33'0 0.0
2017-Oct-14 10:00N 48°56' W 125°33'0 0.0
2017-Oct-14 09:30N 48°56' W 125°33'0 0.0
2017-Oct-14 09:00N 48°56' W 125°33'0 0.0
2017-Oct-14 08:30N 48°56' W 125°33'0 0.0
2017-Oct-14 08:00N 48°56' W 125°33'0 0.0
2017-Oct-14 07:30N 48°56' W 125°33'0 0.0
2017-Oct-14 07:00N 48°56' W 125°33'0 0.0
2017-Oct-14 06:30N 48°56' W 125°33'0 0.0
2017-Oct-14 06:00N 48°56' W 125°33'0 0.0
2017-Oct-14 05:30N 48°56' W 125°33'0 0.0
2017-Oct-14 05:00N 48°56' W 125°33'0 0.0
2017-Oct-14 04:30N 48°56' W 125°33'0 0.0
2017-Oct-14 04:00N 48°56' W 125°33'0 0.0
2017-Oct-14 03:30N 48°56' W 125°33'0 0.0
2017-Oct-14 03:00N 48°56' W 125°33'0 0.0
2017-Oct-14 02:30N 48°56' W 125°33'0 0.0
2017-Oct-14 02:00N 48°56' W 125°33'0 0.0
2017-Oct-14 01:30N 48°56' W 125°33'0 0.0
2017-Oct-14 01:00N 48°56' W 125°33'0 0.0
2017-Oct-14 00:30N 48°56' W 125°33'0 0.0
2017-Oct-14 00:00N 48°56' W 125°33'0 0.0
2017-Oct-13 23:28N 48°56' W 125°33'0 0.0
2017-Oct-13 23:00N 48°56' W 125°33'0 0.0
2017-Oct-13 22:30N 48°56' W 125°33'0 0.0
2017-Oct-13 22:00N 48°56' W 125°33'0 0.0
2017-Oct-13 21:30N 48°56' W 125°33'0 0.0
2017-Oct-13 21:00N 48°56' W 125°33'0 0.0
2017-Oct-13 20:30N 48°56' W 125°33'0 0.0
2017-Oct-13 20:00N 48°56' W 125°33'0 0.0
2017-Oct-13 19:30N 48°56' W 125°33'0 0.0
2017-Oct-13 19:00N 48°56' W 125°33'0 0.0
2017-Oct-13 18:30N 48°56' W 125°33'0 0.0
2017-Oct-13 18:00N 48°56' W 125°33'0 0.0
2017-Oct-13 17:30N 48°56' W 125°33'0 0.4
2017-Oct-13 17:00N 48°56' W 125°32'0 0.0
2017-Oct-13 16:30N 48°56' W 125°32'0 0.0
2017-Oct-13 16:00N 48°56' W 125°32'0 0.0
2017-Oct-13 15:30N 48°56' W 125°32'0 0.0
2017-Oct-13 15:00N 48°56' W 125°32'0 0.0
2017-Oct-13 14:30N 48°56' W 125°32'0 0.0
2017-Oct-13 14:00N 48°56' W 125°32'0 0.0
2017-Oct-13 13:30N 48°56' W 125°32'0 0.0
2017-Oct-13 13:00N 48°56' W 125°32'0 0.0
2017-Oct-13 12:30N 48°56' W 125°32'0 0.0
2017-Oct-13 12:00N 48°56' W 125°32'0 0.0
2017-Oct-13 11:30N 48°56' W 125°32'0 0.0
2017-Oct-13 11:00N 48°56' W 125°32'0 0.0
2017-Oct-13 10:30N 48°56' W 125°32'0 0.0
2017-Oct-13 10:00N 48°56' W 125°32'0 0.0
2017-Oct-13 09:30N 48°56' W 125°32'0 0.0
2017-Oct-13 09:00N 48°56' W 125°32'0 0.0
2017-Oct-13 08:30N 48°56' W 125°32'0 0.0
2017-Oct-13 08:00N 48°56' W 125°32'0 0.0
2017-Oct-13 07:30N 48°56' W 125°32'0 0.0
2017-Oct-13 06:59N 48°56' W 125°32'0 0.0
2017-Oct-13 06:30N 48°56' W 125°32'0 0.0
2017-Oct-13 06:00N 48°56' W 125°32'0 0.0
2017-Oct-13 05:30N 48°56' W 125°32'0 0.0
2017-Oct-13 05:00N 48°56' W 125°32'0 0.0
2017-Oct-13 04:30N 48°56' W 125°32'0 0.0
2017-Oct-13 04:00N 48°56' W 125°32'0 0.0
2017-Oct-13 03:30N 48°56' W 125°32'0 0.0
2017-Oct-13 03:00N 48°56' W 125°32'0 0.0
2017-Oct-13 02:30N 48°56' W 125°32'0 0.0
2017-Oct-13 02:00N 48°56' W 125°32'0 0.0
2017-Oct-13 01:30N 48°56' W 125°32'0 0.0
2017-Oct-13 01:00N 48°56' W 125°32'0 0.0
2017-Oct-13 00:30N 48°56' W 125°32'0 0.0
2017-Oct-13 00:00N 48°56' W 125°32'0 0.0
2017-Oct-12 23:30N 48°56' W 125°32'0 0.0
2017-Oct-12 23:00N 48°56' W 125°32'0 0.2
2017-Oct-12 22:30N 48°56' W 125°32'0 0.2
2017-Oct-12 22:00N 48°56' W 125°32'0 0.2
2017-Oct-12 21:30N 48°56' W 125°32'0 0.0
2017-Oct-12 21:00N 48°56' W 125°32'0 0.5
2017-Oct-12 20:30N 48°56' W 125°32'0 0.0
2017-Oct-12 20:00N 48°56' W 125°32'0 0.0
2017-Oct-12 19:30N 48°56' W 125°32'0 0.0
2017-Oct-12 19:00N 48°56' W 125°32'0 0.0
2017-Oct-12 18:30N 48°56' W 125°32'0 0.0
2017-Oct-12 18:00N 48°56' W 125°32'0 0.0
2017-Oct-12 17:30N 48°56' W 125°32'0 0.0
2017-Oct-12 17:00N 48°56' W 125°32'0 0.0
2017-Oct-12 16:30N 48°56' W 125°32'0 0.0
2017-Oct-12 16:00N 48°56' W 125°32'0 0.0
2017-Oct-12 15:30N 48°56' W 125°32'0 0.0
2017-Oct-12 15:00N 48°56' W 125°32'0 0.0
2017-Oct-12 14:30N 48°56' W 125°32'0 0.0
2017-Oct-12 14:00N 48°56' W 125°32'0 0.0
2017-Oct-12 13:30N 48°56' W 125°32'0 0.0
2017-Oct-12 13:00N 48°56' W 125°32'0 0.0
2017-Oct-12 12:30N 48°56' W 125°32'0 0.0
2017-Oct-12 12:00N 48°56' W 125°32'0 0.0
2017-Oct-12 11:30N 48°56' W 125°32'0 0.0
2017-Oct-12 11:00N 48°56' W 125°32'0 0.0
2017-Oct-12 10:30N 48°56' W 125°32'0 0.0
2017-Oct-12 10:00N 48°56' W 125°32'0 0.0
2017-Oct-12 09:30N 48°56' W 125°32'  
Track history (hours):
 
Tides and Currents Weather Stations Pressure Air Temp Water Temp Dewpoint Dewpoint Depression Visibility Wind Speed Wind Dir Waves Ship Positions

Sun Maiden

Last reported at 2017-Oct-17 21:52 UTC. Time now 2017-Oct-18 02:22 UTC.
Position N 49°14' W 124°49'.

Length 30 m; draft 2.8 m.

Type: Fishing. MMSI: 316003459.

Date/timePositionNaut miles runAvg speedWind from/ knotsBaromVisibWave heightAir tempDewpointWater temp
2017-Oct-17 21:52N 49°14' W 124°49'0 0.0
2017-Oct-17 21:30N 49°14' W 124°49'0 0.0
2017-Oct-17 21:00N 49°14' W 124°49'0 0.0
2017-Oct-17 20:30N 49°14' W 124°49'0 0.0
2017-Oct-17 20:00N 49°14' W 124°49'0 0.0
2017-Oct-17 19:30N 49°14' W 124°49'0 0.0
2017-Oct-17 19:00N 49°14' W 124°49'0 0.0
2017-Oct-17 18:30N 49°14' W 124°49'0 0.0
2017-Oct-17 18:00N 49°14' W 124°49'0 0.0
2017-Oct-17 17:30N 49°14' W 124°49'0 0.0
2017-Oct-17 17:00N 49°14' W 124°49'0 0.0
2017-Oct-17 16:30N 49°14' W 124°49'0 0.0
2017-Oct-17 16:00N 49°14' W 124°49'0 0.0
2017-Oct-17 15:30N 49°14' W 124°49'0 0.0
2017-Oct-17 15:00N 49°14' W 124°49'0 0.0
2017-Oct-17 14:30N 49°14' W 124°49'0 0.0
2017-Oct-17 14:00N 49°14' W 124°49'0 0.0
2017-Oct-17 13:30N 49°14' W 124°49'0 0.0
2017-Oct-17 13:00N 49°14' W 124°49'0 0.0
2017-Oct-17 12:30N 49°14' W 124°49'0 0.0
2017-Oct-17 12:00N 49°14' W 124°49'0 0.0
2017-Oct-17 11:30N 49°14' W 124°49'0 0.0
2017-Oct-17 11:00N 49°14' W 124°49'0 0.0
2017-Oct-17 10:30N 49°14' W 124°49'0 0.0
2017-Oct-17 10:00N 49°14' W 124°49'0 0.0
2017-Oct-17 09:30N 49°14' W 124°49'0 0.0
2017-Oct-17 09:00N 49°14' W 124°49'0 0.0
2017-Oct-17 08:30N 49°14' W 124°49'0 0.0
2017-Oct-17 08:00N 49°14' W 124°49'0 0.0
2017-Oct-17 07:30N 49°14' W 124°49'0 0.0
2017-Oct-17 07:00N 49°14' W 124°49'0 0.0
2017-Oct-17 06:30N 49°14' W 124°49'0 0.0
2017-Oct-17 06:00N 49°14' W 124°49'0 0.0
2017-Oct-17 05:30N 49°14' W 124°49'0 0.0
2017-Oct-17 04:59N 49°14' W 124°49'0 0.0
2017-Oct-17 04:30N 49°14' W 124°49'0 0.0
2017-Oct-17 04:00N 49°14' W 124°49'0 0.0
2017-Oct-17 03:30N 49°14' W 124°49'0 0.0
2017-Oct-17 03:00N 49°14' W 124°49'0 0.0
2017-Oct-17 02:30N 49°14' W 124°49'0 0.0
2017-Oct-17 02:00N 49°14' W 124°49'0 0.0
2017-Oct-17 01:30N 49°14' W 124°49'0 0.0
2017-Oct-17 01:00N 49°14' W 124°49'0 0.0
2017-Oct-17 00:30N 49°14' W 124°49'0 0.0
2017-Oct-17 00:00N 49°14' W 124°49'0 0.0
2017-Oct-16 23:30N 49°14' W 124°49'0 0.0
2017-Oct-16 23:00N 49°14' W 124°49'0 0.0
2017-Oct-16 22:30N 49°14' W 124°49'0 0.0
2017-Oct-16 22:00N 49°14' W 124°49'0 0.0
2017-Oct-16 21:30N 49°14' W 124°49'0 0.0
2017-Oct-16 21:00N 49°14' W 124°49'0 0.0
2017-Oct-16 20:30N 49°14' W 124°49'0 0.0
2017-Oct-16 20:00N 49°14' W 124°49'0 0.0
2017-Oct-16 19:30N 49°14' W 124°49'0 0.0
2017-Oct-16 19:00N 49°14' W 124°49'0 0.1
2017-Oct-16 18:30N 49°14' W 124°49'4 7.7
2017-Oct-16 18:00N 49°10' W 124°49'20 7.5
2017-Oct-16 15:17N 48°56' W 125°11'2 8.6
2017-Oct-16 15:00N 48°57' W 125°15'4 8.2
2017-Oct-16 14:30N 48°56' W 125°21'7 7.1
2017-Oct-16 13:30N 48°56' W 125°32'0 0.3
2017-Oct-16 13:00N 48°56' W 125°32'0 0.0
2017-Oct-16 12:30N 48°56' W 125°32'0 0.0
2017-Oct-16 12:00N 48°56' W 125°32'0 0.0
2017-Oct-16 11:30N 48°56' W 125°32'0 0.0
2017-Oct-16 11:00N 48°56' W 125°32'0 0.0
2017-Oct-16 10:30N 48°56' W 125°32'0 0.0
2017-Oct-16 10:00N 48°56' W 125°32'0 0.1
2017-Oct-16 09:30N 48°56' W 125°32'0 0.1
2017-Oct-16 09:00N 48°56' W 125°32'0 0.1
2017-Oct-16 08:30N 48°56' W 125°32'0 0.1
2017-Oct-16 08:00N 48°56' W 125°32'0 0.1
2017-Oct-16 07:30N 48°56' W 125°32'0 0.0
2017-Oct-16 07:00N 48°56' W 125°32'0 0.0
2017-Oct-16 06:30N 48°56' W 125°32'0 0.1
2017-Oct-16 06:00N 48°56' W 125°32'0 0.1
2017-Oct-16 05:30N 48°56' W 125°32'0 0.0
2017-Oct-16 05:00N 48°56' W 125°32'0 0.0
2017-Oct-16 04:30N 48°56' W 125°32'0 0.1
2017-Oct-16 04:00N 48°56' W 125°32'0 0.0
2017-Oct-16 03:30N 48°56' W 125°32'0 0.1
2017-Oct-16 03:00N 48°56' W 125°32'0 0.1
2017-Oct-16 02:30N 48°56' W 125°32'0 0.0
2017-Oct-16 02:00N 48°56' W 125°32'0 0.0
2017-Oct-16 01:30N 48°56' W 125°32'0 0.0
2017-Oct-16 01:00N 48°56' W 125°32'0 0.0
2017-Oct-16 00:30N 48°56' W 125°32'0 0.0
2017-Oct-16 00:00N 48°56' W 125°32'0 0.1
2017-Oct-15 23:30N 48°56' W 125°32'3 6.4
2017-Oct-15 23:01N 48°53' W 125°33'4 8.4
2017-Oct-15 22:30N 48°49' W 125°35'1 2.1
2017-Oct-15 22:00N 48°48' W 125°35'4 7.2
2017-Oct-15 21:30N 48°45' W 125°35'4 7.7
2017-Oct-15 20:59N 48°41' W 125°36'7 0.2
2017-Oct-14 12:27N 48°43' W 125°25'3 7.6
2017-Oct-14 12:00N 48°46' W 125°27'4 7.9
2017-Oct-14 11:30N 48°50' W 125°30'4 8.0
2017-Oct-14 11:00N 48°53' W 125°32'3 6.6
2017-Oct-14 10:30N 48°56' W 125°33'0 0.0
2017-Oct-14 10:00N 48°56' W 125°33'0 0.0
2017-Oct-14 09:30N 48°56' W 125°33'0 0.0
2017-Oct-14 09:00N 48°56' W 125°33'0 0.0
2017-Oct-14 08:30N 48°56' W 125°33'0 0.0
2017-Oct-14 08:00N 48°56' W 125°33'0 0.0
2017-Oct-14 07:30N 48°56' W 125°33'0 0.0
2017-Oct-14 07:00N 48°56' W 125°33'0 0.0
2017-Oct-14 06:30N 48°56' W 125°33'0 0.0
2017-Oct-14 06:00N 48°56' W 125°33'0 0.0
2017-Oct-14 05:30N 48°56' W 125°33'0 0.0
2017-Oct-14 05:00N 48°56' W 125°33'0 0.0
2017-Oct-14 04:30N 48°56' W 125°33'0 0.0
2017-Oct-14 04:00N 48°56' W 125°33'0 0.0
2017-Oct-14 03:30N 48°56' W 125°33'0 0.0
2017-Oct-14 03:00N 48°56' W 125°33'0 0.0
2017-Oct-14 02:30N 48°56' W 125°33'0 0.0
2017-Oct-14 02:00N 48°56' W 125°33'0 0.0
2017-Oct-14 01:30N 48°56' W 125°33'0 0.0
2017-Oct-14 01:00N 48°56' W 125°33'0 0.0
2017-Oct-14 00:30N 48°56' W 125°33'0 0.0
2017-Oct-14 00:00N 48°56' W 125°33'0 0.0
2017-Oct-13 23:28N 48°56' W 125°33'0 0.0
2017-Oct-13 23:00N 48°56' W 125°33'0 0.0
2017-Oct-13 22:30N 48°56' W 125°33'0 0.0
2017-Oct-13 22:00N 48°56' W 125°33'0 0.0
2017-Oct-13 21:30N 48°56' W 125°33'0 0.0
2017-Oct-13 21:00N 48°56' W 125°33'0 0.0
2017-Oct-13 20:30N 48°56' W 125°33'0 0.0
2017-Oct-13 20:00N 48°56' W 125°33'0 0.0
2017-Oct-13 19:30N 48°56' W 125°33'0 0.0
2017-Oct-13 19:00N 48°56' W 125°33'0 0.0
2017-Oct-13 18:30N 48°56' W 125°33'0 0.0
2017-Oct-13 18:00N 48°56' W 125°33'0 0.0
2017-Oct-13 17:30N 48°56' W 125°33'0 0.4
2017-Oct-13 17:00N 48°56' W 125°32'0 0.0
2017-Oct-13 16:30N 48°56' W 125°32'0 0.0
2017-Oct-13 16:00N 48°56' W 125°32'0 0.0
2017-Oct-13 15:30N 48°56' W 125°32'0 0.0
2017-Oct-13 15:00N 48°56' W 125°32'0 0.0
2017-Oct-13 14:30N 48°56' W 125°32'0 0.0
2017-Oct-13 14:00N 48°56' W 125°32'0 0.0
2017-Oct-13 13:30N 48°56' W 125°32'0 0.0
2017-Oct-13 13:00N 48°56' W 125°32'0 0.0
2017-Oct-13 12:30N 48°56' W 125°32'0 0.0
2017-Oct-13 12:00N 48°56' W 125°32'0 0.0
2017-Oct-13 11:30N 48°56' W 125°32'0 0.0
2017-Oct-13 11:00N 48°56' W 125°32'0 0.0
2017-Oct-13 10:30N 48°56' W 125°32'0 0.0
2017-Oct-13 10:00N 48°56' W 125°32'0 0.0
2017-Oct-13 09:30N 48°56' W 125°32'0 0.0
2017-Oct-13 09:00N 48°56' W 125°32'0 0.0
2017-Oct-13 08:30N 48°56' W 125°32'0 0.0
2017-Oct-13 08:00N 48°56' W 125°32'0 0.0
2017-Oct-13 07:30N 48°56' W 125°32'0 0.0
2017-Oct-13 06:59N 48°56' W 125°32'0 0.0
2017-Oct-13 06:30N 48°56' W 125°32'0 0.0
2017-Oct-13 06:00N 48°56' W 125°32'0 0.0
2017-Oct-13 05:30N 48°56' W 125°32'0 0.0
2017-Oct-13 05:00N 48°56' W 125°32'0 0.0
2017-Oct-13 04:30N 48°56' W 125°32'0 0.0
2017-Oct-13 04:00N 48°56' W 125°32'0 0.0
2017-Oct-13 03:30N 48°56' W 125°32'0 0.0
2017-Oct-13 03:00N 48°56' W 125°32'0 0.0
2017-Oct-13 02:30N 48°56' W 125°32'0 0.0
2017-Oct-13 02:00N 48°56' W 125°32'0 0.0
2017-Oct-13 01:30N 48°56' W 125°32'0 0.0
2017-Oct-13 01:00N 48°56' W 125°32'0 0.0
2017-Oct-13 00:30N 48°56' W 125°32'0 0.0
2017-Oct-13 00:00N 48°56' W 125°32'0 0.0
2017-Oct-12 23:30N 48°56' W 125°32'0 0.0
2017-Oct-12 23:00N 48°56' W 125°32'0 0.2
2017-Oct-12 22:30N 48°56' W 125°32'0 0.2
2017-Oct-12 22:00N 48°56' W 125°32'0 0.2
2017-Oct-12 21:30N 48°56' W 125°32'0 0.0
2017-Oct-12 21:00N 48°56' W 125°32'0 0.5
2017-Oct-12 20:30N 48°56' W 125°32'0 0.0
2017-Oct-12 20:00N 48°56' W 125°32'0 0.0
2017-Oct-12 19:30N 48°56' W 125°32'0 0.0
2017-Oct-12 19:00N 48°56' W 125°32'0 0.0
2017-Oct-12 18:30N 48°56' W 125°32'0 0.0
2017-Oct-12 18:00N 48°56' W 125°32'0 0.0
2017-Oct-12 17:30N 48°56' W 125°32'0 0.0
2017-Oct-12 17:00N 48°56' W 125°32'0 0.0
2017-Oct-12 16:30N 48°56' W 125°32'0 0.0
2017-Oct-12 16:00N 48°56' W 125°32'0 0.0
2017-Oct-12 15:30N 48°56' W 125°32'0 0.0
2017-Oct-12 15:00N 48°56' W 125°32'0 0.0
2017-Oct-12 14:30N 48°56' W 125°32'0 0.0
2017-Oct-12 14:00N 48°56' W 125°32'0 0.0
2017-Oct-12 13:30N 48°56' W 125°32'0 0.0
2017-Oct-12 13:00N 48°56' W 125°32'0 0.0
2017-Oct-12 12:30N 48°56' W 125°32'0 0.0
2017-Oct-12 12:00N 48°56' W 125°32'0 0.0
2017-Oct-12 11:30N 48°56' W 125°32'0 0.0
2017-Oct-12 11:00N 48°56' W 125°32'0 0.0
2017-Oct-12 10:30N 48°56' W 125°32'0 0.0
2017-Oct-12 10:00N 48°56' W 125°32'0 0.0
2017-Oct-12 09:30N 48°56' W 125°32'  

Dump ship's entire track history